Impacts TAF Board INFO
FOR SITUATIONAL AWARENESS. NOT TO BE USED FOR FLIGHT PLANNING PURPOSES.
IDs:

KIAH - Houston/Bush Intl, TX, US

Issued at 2325 UTC 15 Dec 2017
Updated at 2331 UTC 15 Dec 2017
Potential Impact None Slight Moderate High
Time2253Z 16/00Z 16/01Z 16/02Z 16/03Z 16/04Z 16/05Z 16/06Z 16/07Z 16/08Z 16/09Z 16/10Z 16/11Z 16/12Z>>
Type OBS PRVL PRVL PRVL PRVL PRVL PRVL PRVL PRVL PRVL PRVL PRVL PRVL PRVL
VIS 10 >6 >6 >6 >6 >6 >6 >6 >6 >6 >6 >6 >6 >6
CIG 180 150 150 150 150 150 150 150 150 150 150 150 150 150
Cover BKN OVC OVC OVC OVC OVC OVC OVC OVC OVC OVC OVC OVC OVC
FltCat VFR VFR VFR VFR VFR VFR VFR VFR VFR VFR VFR VFR VFR VFR
WX -- -- -- -- -- -- -- -- -- -- -- -- -- --
WDir VRB VRB VRB VRB VRB VRB VRB VRB VRB VRB VRB VRB VRB VRB
WSpd 3 3 3 3 3 3 3 3 3 3 3 3 3 3
WGst -- -- -- -- -- -- -- -- -- -- -- -- -- --

Raw TAF
KIAH 152325Z 1600/1706 VRB03KT P6SM SCT080 OVC150
  FM161400 12007KT P6SM BKN050 OVC100
  FM161800 10010KT P6SM VCSH OVC050
  FM162200 08012KT P6SM -SHRA SCT025 OVC050
  FM170100 03010KT P6SM SHRA VCTS BKN020CB OVC050
  FM170500 06008KT P6SM BKN050 OVC100


Raw METAR
KIAH 152253Z VRB03KT 10SM BKN180 BKN250 12/02 A3024 RMK AO2 SLP240 T01170022
KIAH 152153Z 36005KT 10SM BKN180 BKN250 13/01 A3025 RMK AO2 SLP242 T01280006
KIAH 152053Z 02006KT 10SM BKN180 BKN250 13/01 A3025 RMK AO2 SLP244 FU S-SW T01330006 56019

METAR Board
Radar Display
Forecast Discussion

FOR SITUATIONAL AWARENESS. NOT TO BE USED FOR FLIGHT PLANNING PURPOSES.